createdAt,value
2022-10-18T00:01:19.096Z,7.35
2022-10-18T00:04:22.073Z,7.28
2022-10-18T00:07:25.066Z,8.57
2022-10-18T00:10:28.143Z,10.35
2022-10-18T00:13:31.647Z,8.77
2022-10-18T00:16:34.711Z,8.63
2022-10-18T00:19:37.752Z,10.38
2022-10-18T00:22:41.987Z,10.02
2022-10-18T00:25:45.043Z,9.55
2022-10-18T00:28:52.576Z,9.82
2022-10-18T00:31:55.690Z,10.30
2022-10-18T00:34:58.732Z,9.00
2022-10-18T00:38:01.727Z,8.93
2022-10-18T00:41:06.322Z,10.15
2022-10-18T00:44:13.056Z,10.15
2022-10-18T00:47:18.747Z,12.57
2022-10-18T00:50:22.596Z,14.50
2022-10-18T00:53:25.574Z,15.40
2022-10-18T00:56:29.577Z,14.60
2022-10-18T00:59:33.368Z,15.82
2022-10-18T01:02:37.923Z,14.77
2022-10-18T01:05:46.312Z,7.65
2022-10-18T01:09:10.762Z,6.95
2022-10-18T01:12:45.881Z,12.75
2022-10-18T01:16:17.940Z,15.97
2022-10-18T01:19:59.114Z,14.93
2022-10-18T01:23:24.098Z,13.50
2022-10-18T01:26:36.177Z,14.65
2022-10-18T01:29:39.268Z,14.30
2022-10-18T01:32:49.011Z,14.32
2022-10-18T01:36:15.109Z,12.18
2022-10-18T01:39:39.276Z,12.60
2022-10-18T01:42:44.285Z,13.45
2022-10-18T01:45:48.641Z,14.50
2022-10-18T01:48:53.652Z,13.85
2022-10-18T01:51:56.645Z,10.43
2022-10-18T01:55:01.358Z,11.02
2022-10-18T01:58:19.755Z,14.40
2022-10-18T02:01:53.829Z,13.50
2022-10-18T02:05:27.350Z,14.50
2022-10-18T02:08:48.203Z,12.23
2022-10-18T02:11:55.453Z,13.15
2022-10-18T02:14:59.360Z,12.95
2022-10-18T02:18:07.063Z,12.50
2022-10-18T02:21:14.911Z,11.93
2022-10-18T02:24:20.278Z,11.55
2022-10-18T02:27:23.590Z,10.45
2022-10-18T02:30:37.961Z,10.05
2022-10-18T02:33:46.473Z,10.88
2022-10-18T02:36:56.157Z,12.35
2022-10-18T02:39:59.317Z,10.63
2022-10-18T02:43:02.277Z,11.35
2022-10-18T02:46:05.318Z,10.85
2022-10-18T02:49:08.394Z,11.45
2022-10-18T02:52:11.595Z,10.60
2022-10-18T02:55:14.555Z,9.30
2022-10-18T02:58:17.610Z,10.77
2022-10-18T03:01:20.768Z,11.63
2022-10-18T03:04:24.461Z,13.40
2022-10-18T03:07:27.707Z,13.73
2022-10-18T03:10:30.791Z,13.95
2022-10-18T03:13:34.623Z,12.85
2022-10-18T03:16:37.934Z,12.27
2022-10-18T03:19:40.921Z,12.48
2022-10-18T03:22:43.971Z,11.40
2022-10-18T03:25:46.996Z,10.82
2022-10-18T03:28:50.329Z,10.30
2022-10-18T03:31:53.672Z,13.82
2022-10-18T03:34:56.645Z,15.50
2022-10-18T03:37:59.632Z,12.82
2022-10-18T03:41:02.591Z,12.13
2022-10-18T03:44:05.906Z,13.90
2022-10-18T03:47:09.000Z,13.20
2022-10-18T03:50:12.063Z,13.18
2022-10-18T03:53:15.196Z,14.20
2022-10-18T03:56:18.418Z,14.13
2022-10-18T03:59:21.469Z,15.23
2022-10-18T04:02:24.608Z,13.73
2022-10-18T04:05:29.045Z,11.95
2022-10-18T04:08:32.038Z,13.77
2022-10-18T04:11:35.218Z,15.05
2022-10-18T04:14:38.234Z,17.15
2022-10-18T04:17:41.226Z,13.70
2022-10-18T04:20:44.212Z,10.50
2022-10-18T04:23:51.163Z,5.93
2022-10-18T04:26:54.134Z,4.38
2022-10-18T04:29:57.376Z,4.40
2022-10-18T04:33:00.416Z,3.53
2022-10-18T04:36:03.997Z,3.05
2022-10-18T04:39:06.892Z,2.65
2022-10-18T04:42:09.915Z,3.00
2022-10-18T04:45:13.078Z,2.60
2022-10-18T04:48:16.440Z,2.42
2022-10-18T04:51:19.493Z,2.42
2022-10-18T04:54:23.977Z,2.70
2022-10-18T04:57:29.839Z,2.15
2022-10-18T05:00:36.463Z,2.15
2022-10-18T05:03:42.081Z,2.80
2022-10-18T05:06:45.072Z,2.50
2022-10-18T05:09:48.213Z,2.58
2022-10-18T05:12:51.311Z,2.97
2022-10-18T05:15:54.375Z,2.88
2022-10-18T05:18:57.403Z,2.60
2022-10-18T05:22:00.416Z,3.45
2022-10-18T05:25:03.904Z,3.70
2022-10-18T05:28:11.095Z,3.42
2022-10-18T05:31:18.787Z,7.85
2022-10-18T05:34:22.490Z,8.93
2022-10-18T05:37:28.327Z,11.60
2022-10-18T05:40:31.734Z,8.02
2022-10-18T05:43:34.986Z,10.98
2022-10-18T05:46:38.219Z,10.05
2022-10-18T05:49:41.222Z,10.57
2022-10-18T05:52:44.214Z,7.22
2022-10-18T05:55:47.284Z,2.88
2022-10-18T05:58:53.725Z,2.88
2022-10-18T06:01:56.759Z,4.53
2022-10-18T06:05:00.865Z,3.60
2022-10-18T06:08:07.942Z,6.57
2022-10-18T06:11:16.123Z,5.85
2022-10-18T06:14:19.271Z,5.63
2022-10-18T06:17:22.214Z,4.80
2022-10-18T06:20:25.457Z,3.88
2022-10-18T06:23:29.235Z,4.00
2022-10-18T06:26:32.319Z,4.05
2022-10-18T06:29:37.581Z,3.30
2022-10-18T06:32:40.661Z,2.80
2022-10-18T06:35:44.943Z,2.95
2022-10-18T06:38:48.051Z,3.30
2022-10-18T06:41:51.272Z,3.40
2022-10-18T06:44:57.058Z,2.95
2022-10-18T06:48:00.203Z,2.65
2022-10-18T06:51:06.066Z,2.28
2022-10-18T06:54:18.376Z,2.80
2022-10-18T06:57:22.640Z,3.58
2022-10-18T07:00:25.713Z,4.35
2022-10-18T07:03:28.950Z,3.45
2022-10-18T07:06:32.066Z,3.50
2022-10-18T07:09:35.287Z,3.85
2022-10-18T07:12:38.406Z,2.40
2022-10-18T07:15:41.431Z,2.47
2022-10-18T07:18:49.820Z,2.03
2022-10-18T07:21:52.863Z,2.50
2022-10-18T07:24:55.957Z,2.83
2022-10-18T07:27:59.135Z,3.83
2022-10-18T07:31:06.314Z,1.83
2022-10-18T07:34:12.801Z,2.22
2022-10-18T07:37:15.775Z,2.72
2022-10-18T07:40:19.068Z,2.20
2022-10-18T07:43:22.036Z,2.38
2022-10-18T07:46:25.463Z,2.63
2022-10-18T07:49:28.535Z,2.80
2022-10-18T07:52:31.677Z,3.70
2022-10-18T07:55:34.795Z,3.75
2022-10-18T07:58:38.200Z,3.75
2022-10-18T08:01:41.374Z,3.90
2022-10-18T08:04:44.446Z,4.43
2022-10-18T08:07:47.665Z,4.20
2022-10-18T08:10:51.312Z,6.80
2022-10-18T08:13:55.320Z,8.57
2022-10-18T08:16:58.323Z,11.47
2022-10-18T08:20:18.972Z,14.65
2022-10-18T08:23:22.227Z,6.53
2022-10-18T08:26:25.390Z,5.72
2022-10-18T08:29:31.653Z,5.72
2022-10-18T08:32:35.560Z,4.85
2022-10-18T08:35:38.854Z,4.53
2022-10-18T08:38:42.748Z,4.95
2022-10-18T08:42:04.278Z,4.20
2022-10-18T08:45:12.898Z,4.25
2022-10-18T08:48:42.937Z,4.88
2022-10-18T08:51:49.260Z,4.43
2022-10-18T08:55:02.810Z,3.53
2022-10-18T08:58:27.296Z,3.25
2022-10-18T09:02:05.430Z,3.20
2022-10-18T09:05:36.991Z,2.92
2022-10-18T09:09:25.409Z,3.58
2022-10-18T09:12:56.714Z,22.23
2022-10-18T09:16:02.324Z,38.35
2022-10-18T09:19:12.624Z,33.28
2022-10-18T09:22:20.045Z,30.60
2022-10-18T09:25:30.336Z,35.88
2022-10-18T09:28:53.514Z,25.73
2022-10-18T09:32:08.524Z,24.60
2022-10-18T09:35:22.468Z,25.85
2022-10-18T09:39:00.673Z,44.22
2022-10-18T09:42:15.652Z,38.80
2022-10-18T09:45:40.739Z,38.80
2022-10-18T09:48:47.723Z,24.67
2022-10-18T09:51:52.605Z,22.15
2022-10-18T09:55:04.503Z,13.88
2022-10-18T09:58:11.664Z,16.48
2022-10-18T10:01:20.136Z,14.20
2022-10-18T10:04:23.292Z,7.65
2022-10-18T10:07:35.654Z,14.60
2022-10-18T10:10:49.167Z,15.93
2022-10-18T10:13:52.334Z,16.33
2022-10-18T10:16:59.975Z,18.92
2022-10-18T10:20:23.453Z,16.92
2022-10-18T10:23:30.247Z,18.55
2022-10-18T10:26:39.382Z,32.15
2022-10-18T10:29:54.200Z,27.60
2022-10-18T10:32:58.074Z,24.35
2022-10-18T10:36:04.870Z,38.85
2022-10-18T10:39:22.019Z,25.60
2022-10-18T10:42:25.559Z,22.73
2022-10-18T10:45:32.300Z,17.83
2022-10-18T10:48:48.809Z,17.73
2022-10-18T10:52:26.361Z,12.50
2022-10-18T10:55:35.605Z,14.13
2022-10-18T10:58:41.491Z,18.35
2022-10-18T11:01:44.612Z,13.43
2022-10-18T11:04:50.341Z,9.85
2022-10-18T11:07:57.667Z,8.07
2022-10-18T11:11:28.331Z,11.88
2022-10-18T11:14:37.801Z,10.85
2022-10-18T11:17:41.306Z,10.93
2022-10-18T11:20:59.063Z,10.40
2022-10-18T11:24:05.282Z,9.88
2022-10-18T11:27:26.309Z,4.65
2022-10-18T11:30:48.737Z,5.88
2022-10-18T11:34:16.188Z,4.95
2022-10-18T11:37:43.358Z,6.97
2022-10-18T11:40:55.172Z,10.07
2022-10-18T11:44:04.741Z,7.93
2022-10-18T11:47:17.370Z,8.77
2022-10-18T11:50:53.044Z,6.93
2022-10-18T11:54:18.507Z,5.20
2022-10-18T11:57:24.185Z,4.88
2022-10-18T12:00:45.692Z,8.35
2022-10-18T12:04:00.198Z,12.40
2022-10-18T12:07:08.085Z,12.38
2022-10-18T12:10:26.249Z,7.03
2022-10-18T12:13:54.953Z,10.20
2022-10-18T12:17:35.829Z,11.13
2022-10-18T12:20:38.101Z,155.00
2022-10-18T12:24:00.099Z,9.20
2022-10-18T12:27:03.792Z,8.50
2022-10-18T12:30:23.325Z,18.20
2022-10-18T12:33:30.619Z,17.40
2022-10-18T12:37:10.898Z,13.70
2022-10-18T12:40:41.486Z,16.13
2022-10-18T12:43:57.313Z,8.77
2022-10-18T12:47:02.889Z,11.23
2022-10-18T12:50:22.879Z,9.82
2022-10-18T12:53:28.517Z,10.70
2022-10-18T12:56:31.720Z,14.13
2022-10-18T12:59:34.723Z,15.65
2022-10-18T13:02:37.934Z,15.32
2022-10-18T13:05:54.925Z,14.25
2022-10-18T13:09:22.359Z,13.95
2022-10-18T13:12:25.416Z,13.35
2022-10-18T13:15:55.271Z,13.32
2022-10-18T13:19:21.627Z,15.23
2022-10-18T13:22:40.885Z,13.35
2022-10-18T13:26:04.952Z,14.32
2022-10-18T13:29:29.216Z,15.35
2022-10-18T13:32:44.216Z,13.45
2022-10-18T13:36:02.603Z,14.23
2022-10-18T13:39:06.896Z,18.55
2022-10-18T13:42:15.860Z,15.38
2022-10-18T13:45:34.290Z,15.48
2022-10-18T13:48:37.396Z,15.38
2022-10-18T13:51:59.010Z,14.05
2022-10-18T13:55:26.262Z,11.73
2022-10-18T13:59:13.244Z,16.23
2022-10-18T14:03:00.399Z,17.80
2022-10-18T14:06:23.359Z,15.48
2022-10-18T14:09:48.672Z,13.25
2022-10-18T14:12:58.719Z,13.43
2022-10-18T14:16:38.179Z,14.48
2022-10-18T14:19:50.053Z,17.85
2022-10-18T14:23:04.150Z,18.05
2022-10-18T14:26:18.139Z,15.80
2022-10-18T14:29:21.184Z,14.50
2022-10-18T14:32:29.163Z,14.52
2022-10-18T14:35:35.974Z,14.30
2022-10-18T14:38:47.524Z,15.73
2022-10-18T14:41:53.766Z,15.57
2022-10-18T14:44:57.136Z,13.00
2022-10-18T14:48:24.383Z,10.88
2022-10-18T14:51:29.798Z,13.82
2022-10-18T14:54:38.665Z,10.52
2022-10-18T14:57:42.259Z,13.90
2022-10-18T15:00:48.602Z,10.27
2022-10-18T15:03:58.612Z,12.32
2022-10-18T15:07:04.613Z,13.40
2022-10-18T15:10:15.348Z,15.82
2022-10-18T15:13:19.397Z,21.08
2022-10-18T15:16:26.512Z,26.73
2022-10-18T15:19:34.501Z,27.95
2022-10-18T15:22:37.490Z,30.98
2022-10-18T15:25:40.539Z,45.03
2022-10-18T15:28:51.820Z,41.35
2022-10-18T15:32:16.894Z,24.40
2022-10-18T15:35:26.289Z,29.38
2022-10-18T15:38:36.873Z,31.90
2022-10-18T15:41:51.706Z,28.65
2022-10-18T15:44:55.336Z,26.27
2022-10-18T15:48:07.416Z,25.10
2022-10-18T15:51:37.334Z,19.05
2022-10-18T15:54:40.518Z,18.55
2022-10-18T15:57:43.553Z,17.75
2022-10-18T16:00:47.808Z,13.55
2022-10-18T16:03:52.194Z,15.88
2022-10-18T16:06:56.235Z,13.65
2022-10-18T16:09:59.418Z,21.48
2022-10-18T16:13:02.381Z,20.80
2022-10-18T16:16:05.594Z,16.63
2022-10-18T16:19:10.675Z,18.95
2022-10-18T16:25:23.240Z,25.83
2022-10-18T16:28:26.758Z,21.23
2022-10-18T16:31:32.702Z,26.17
2022-10-18T16:34:36.934Z,48.00
2022-10-18T16:37:40.790Z,51.75
2022-10-18T16:40:43.772Z,52.40
2022-10-18T16:43:49.917Z,56.95
2022-10-18T16:46:54.101Z,35.97
2022-10-18T16:50:05.599Z,56.95
2022-10-18T16:53:09.878Z,38.40
2022-10-18T16:56:22.687Z,44.58
2022-10-18T16:59:29.542Z,42.92
2022-10-18T17:02:32.805Z,42.58
2022-10-18T17:05:36.016Z,43.53
2022-10-18T17:08:39.195Z,45.97
2022-10-18T17:11:43.865Z,43.40
2022-10-18T17:14:47.161Z,41.90
2022-10-18T17:17:50.675Z,35.03
2022-10-18T17:20:54.167Z,32.70
2022-10-18T17:24:01.078Z,30.08
2022-10-18T17:27:04.328Z,27.25
2022-10-18T17:30:07.873Z,28.80
2022-10-18T17:33:12.095Z,29.27
2022-10-18T17:36:15.461Z,30.60
2022-10-18T17:39:18.558Z,28.17
2022-10-18T17:42:22.331Z,28.48
2022-10-18T17:45:25.620Z,26.10
2022-10-18T17:48:29.745Z,24.52
2022-10-18T17:51:32.783Z,21.50
2022-10-18T17:54:35.888Z,19.20
2022-10-18T17:57:40.149Z,18.88
2022-10-18T18:00:43.199Z,19.00
2022-10-18T18:03:48.389Z,18.40
2022-10-18T18:06:53.339Z,16.40
2022-10-18T18:09:56.651Z,13.55
2022-10-18T18:12:59.692Z,14.93
2022-10-18T18:16:31.944Z,12.10
2022-10-18T18:19:35.186Z,10.48
2022-10-18T18:22:41.628Z,10.30
2022-10-18T18:25:55.208Z,8.82
2022-10-18T18:28:58.333Z,6.25
2022-10-18T18:32:03.951Z,11.45
2022-10-18T18:35:07.316Z,12.10
2022-10-18T18:38:10.324Z,8.15
2022-10-18T18:41:21.885Z,9.15
2022-10-18T18:44:25.706Z,9.18
2022-10-18T18:47:28.752Z,8.75
2022-10-18T18:50:32.557Z,8.48
2022-10-18T18:53:35.707Z,8.00
2022-10-18T18:56:39.085Z,6.97
2022-10-18T18:59:42.075Z,6.35
2022-10-18T19:02:45.145Z,5.70
2022-10-18T19:05:48.231Z,6.85
2022-10-18T19:08:54.868Z,4.93
2022-10-18T19:11:57.964Z,4.20
2022-10-18T19:15:01.043Z,5.38
2022-10-18T19:18:06.111Z,4.82
2022-10-18T19:21:09.177Z,4.15
2022-10-18T19:24:12.583Z,5.25
2022-10-18T19:27:15.546Z,5.13
2022-10-18T19:30:20.406Z,5.20
2022-10-18T19:36:47.896Z,4.72
2022-10-18T19:42:54.935Z,5.97
2022-10-18T19:46:02.094Z,5.47
2022-10-18T19:49:05.155Z,5.35
2022-10-18T19:52:08.122Z,4.68
2022-10-18T19:55:11.167Z,6.18
2022-10-18T19:58:15.240Z,4.95
2022-10-18T20:01:19.538Z,5.60
2022-10-18T20:04:22.677Z,4.78
2022-10-18T20:07:25.667Z,5.57
2022-10-18T20:10:28.710Z,4.35
2022-10-18T20:13:31.924Z,4.68
2022-10-18T20:16:35.277Z,4.43
2022-10-18T20:19:38.332Z,4.18
2022-10-18T20:22:41.364Z,3.47
2022-10-18T20:25:55.356Z,5.70
2022-10-18T20:29:00.326Z,5.95
2022-10-18T20:32:03.758Z,6.43
2022-10-18T20:35:07.116Z,7.40
2022-10-18T20:38:10.119Z,5.80
2022-10-18T20:41:20.289Z,4.93
2022-10-18T20:44:23.327Z,5.22
2022-10-18T20:47:26.428Z,5.05
2022-10-18T20:50:29.502Z,4.82
2022-10-18T20:53:32.740Z,4.78
2022-10-18T20:56:37.226Z,4.78
2022-10-18T20:59:40.250Z,4.70
2022-10-18T21:02:43.269Z,5.03
2022-10-18T21:05:46.296Z,6.18
2022-10-18T21:08:58.169Z,6.70
2022-10-18T21:12:01.259Z,13.15
2022-10-18T21:15:04.659Z,7.75
2022-10-18T21:18:07.709Z,5.68
2022-10-18T21:21:16.551Z,5.22
2022-10-18T21:24:20.761Z,8.63
2022-10-18T21:27:24.050Z,5.53
2022-10-18T21:30:27.053Z,5.55
2022-10-18T21:33:30.071Z,6.55
2022-10-18T21:36:35.984Z,5.43
2022-10-18T21:39:39.144Z,7.00
2022-10-18T21:42:42.128Z,5.60
2022-10-18T21:45:45.162Z,6.75
2022-10-18T21:48:50.775Z,5.10
2022-10-18T21:51:53.965Z,6.15
2022-10-18T21:54:56.908Z,5.80
2022-10-18T21:57:59.892Z,5.63
2022-10-18T22:01:07.347Z,5.20
2022-10-18T22:04:22.177Z,5.45
2022-10-18T22:07:26.217Z,5.65
2022-10-18T22:10:29.757Z,5.77
2022-10-18T22:13:33.136Z,5.68
2022-10-18T22:16:36.237Z,5.68
2022-10-18T22:19:39.351Z,6.65
2022-10-18T22:22:42.420Z,6.32
2022-10-18T22:25:45.571Z,6.20
2022-10-18T22:28:54.193Z,5.97
2022-10-18T22:31:57.252Z,6.57
2022-10-18T22:35:00.225Z,6.85
2022-10-18T22:38:03.192Z,7.18
2022-10-18T22:41:11.330Z,7.93
2022-10-18T22:44:15.467Z,7.93
2022-10-18T22:47:18.592Z,7.47
2022-10-18T22:50:21.679Z,6.45
2022-10-18T22:53:24.772Z,7.63
2022-10-18T22:56:27.926Z,7.72
2022-10-18T22:59:30.861Z,6.88
2022-10-18T23:02:34.400Z,6.82
2022-10-18T23:05:39.680Z,6.55
2022-10-18T23:08:42.725Z,6.25
2022-10-18T23:11:47.651Z,6.30
2022-10-18T23:17:55.415Z,6.93
2022-10-18T23:21:03.778Z,6.30
2022-10-18T23:24:06.899Z,5.28
2022-10-18T23:27:09.959Z,5.72
2022-10-18T23:30:13.437Z,5.55
2022-10-18T23:33:16.440Z,6.05
2022-10-18T23:36:19.931Z,6.47
2022-10-18T23:39:22.927Z,6.25
2022-10-18T23:42:26.230Z,5.82
2022-10-18T23:45:29.457Z,6.13
2022-10-18T23:48:34.782Z,6.38
2022-10-18T23:51:37.899Z,6.90
2022-10-18T23:54:40.976Z,6.57
2022-10-18T23:57:44.038Z,6.72
